Time;durP1;ratioP1;P1;durP2;ratioP2;P2;SDS_P1;SDS_P2;PMS_P1;PMS_P2;Temp;Humidity;BMP_temperature;BMP_pressure;BME280_temperature;BME280_humidity;BME280_pressure;Samples;Min_cycle;Max_cycle;Signal;HPM_P1;HPM_P2
2021/09/18 00:01:35;;;;;;;8.77;4.43;;;;;;;;;;5032000;28;20041;-71
2021/09/18 00:04:04;;;;;;;7.22;5.00;;;;;;;;;;5032028;28;20061;-70
2021/09/18 00:06:29;;;;;;;13.70;4.32;;;;;;;;;;5031776;28;20380;-69
2021/09/18 00:08:55;;;;;;;6.10;4.60;;;;;;;;;;5100141;28;20033;-69
2021/09/18 00:11:21;;;;;;;11.38;5.18;;;;;;;;;;5089762;28;20034;-69
2021/09/18 00:13:47;;;;;;;12.43;4.50;;;;;;;;;;5011986;28;20517;-69
2021/09/18 00:16:13;;;;;;;10.05;5.40;;;;;;;;;;5012111;28;20078;-68
2021/09/18 00:18:39;;;;;;;8.82;4.72;;;;;;;;;;5011703;28;20386;-69
2021/09/18 00:21:05;;;;;;;9.40;4.88;;;;;;;;;;5011898;28;20147;-69
2021/09/18 00:23:31;;;;;;;5.97;4.22;;;;;;;;;;5011765;28;20389;-68
2021/09/18 00:25:58;;;;;;;8.80;6.43;;;;;;;;;;5112243;27;20409;-69
2021/09/18 00:28:24;;;;;;;17.65;4.90;;;;;;;;;;5093416;27;20052;-68
2021/09/18 00:30:50;;;;;;;7.28;5.85;;;;;;;;;;5031495;28;20029;-69
2021/09/18 00:33:16;;;;;;;7.97;4.90;;;;;;;;;;5099919;28;20471;-70
2021/09/18 00:35:42;;;;;;;8.60;5.18;;;;;;;;;;5031592;28;20105;-69
2021/09/18 00:38:08;;;;;;;6.85;4.97;;;;;;;;;;5099813;28;20543;-68
2021/09/18 00:40:34;;;;;;;4.88;4.28;;;;;;;;;;5074069;27;20023;-69
2021/09/18 00:43:00;;;;;;;7.95;5.03;;;;;;;;;;5134923;27;20370;-69
2021/09/18 00:45:26;;;;;;;11.57;5.50;;;;;;;;;;5135446;27;20450;-69
2021/09/18 00:47:52;;;;;;;8.48;5.30;;;;;;;;;;5135529;27;20034;-70
2021/09/18 00:50:18;;;;;;;10.07;5.30;;;;;;;;;;5135353;27;20393;-68
2021/09/18 00:52:44;;;;;;;7.10;5.38;;;;;;;;;;5117150;27;20088;-70
2021/09/18 00:55:10;;;;;;;5.93;5.03;;;;;;;;;;5134983;27;20027;-68
2021/09/18 00:57:36;;;;;;;10.73;4.65;;;;;;;;;;5135621;27;20024;-68
2021/09/18 01:00:04;;;;;;;7.25;5.57;;;;;;;;;;5135329;27;20027;-69
2021/09/18 01:02:31;;;;;;;6.75;5.25;;;;;;;;;;5070789;27;20053;-71
2021/09/18 01:04:58;;;;;;;34.25;7.65;;;;;;;;;;5011394;28;20043;-74
2021/09/18 01:07:24;;;;;;;12.77;6.75;;;;;;;;;;5011505;28;20045;-70
2021/09/18 01:09:50;;;;;;;7.60;5.43;;;;;;;;;;5011351;28;20061;-69
2021/09/18 01:12:17;;;;;;;8.88;7.35;;;;;;;;;;5011141;28;20114;-69
2021/09/18 01:14:44;;;;;;;9.00;6.22;;;;;;;;;;5010991;28;20061;-68
2021/09/18 01:17:10;;;;;;;11.98;4.68;;;;;;;;;;5010971;28;20414;-68
2021/09/18 01:19:36;;;;;;;12.32;4.90;;;;;;;;;;5010772;28;20451;-69
2021/09/18 01:22:03;;;;;;;19.25;4.80;;;;;;;;;;5078549;28;20466;-68
2021/09/18 01:24:29;;;;;;;15.63;4.72;;;;;;;;;;5010870;28;20504;-67
2021/09/18 01:26:55;;;;;;;21.23;5.10;;;;;;;;;;5010866;28;20030;-67
2021/09/18 01:29:21;;;;;;;11.63;4.60;;;;;;;;;;5010586;28;20102;-68
2021/09/18 01:31:48;;;;;;;7.60;5.30;;;;;;;;;;5010711;28;20497;-67
2021/09/18 01:34:21;;;;;;;15.95;4.65;;;;;;;;;;5010834;28;20022;-66
2021/09/18 01:36:48;;;;;;;16.15;5.10;;;;;;;;;;5011002;28;20030;-67
2021/09/18 01:39:14;;;;;;;16.50;6.50;;;;;;;;;;5010602;28;20110;-67
2021/09/18 01:41:41;;;;;;;7.47;5.05;;;;;;;;;;5010485;28;20041;-68
2021/09/18 01:44:07;;;;;;;8.93;5.68;;;;;;;;;;5095434;28;20022;-67
2021/09/18 01:46:33;;;;;;;12.73;5.18;;;;;;;;;;5010608;28;20026;-66
2021/09/18 01:48:59;;;;;;;8.63;4.65;;;;;;;;;;5010540;28;20373;-67
2021/09/18 01:51:28;;;;;;;17.80;5.55;;;;;;;;;;5010615;28;20030;-66
2021/09/18 01:53:54;;;;;;;7.55;4.63;;;;;;;;;;5010249;28;20025;-67
2021/09/18 01:56:20;;;;;;;9.30;6.35;;;;;;;;;;5010392;28;20144;-66
2021/09/18 01:58:46;;;;;;;9.48;4.53;;;;;;;;;;5010349;28;20044;-67
2021/09/18 02:01:12;;;;;;;6.93;4.80;;;;;;;;;;5021178;28;20037;-67
2021/09/18 02:03:38;;;;;;;8.50;5.40;;;;;;;;;;5098472;28;20037;-67
2021/09/18 02:06:04;;;;;;;12.75;6.28;;;;;;;;;;5098155;28;20071;-69
2021/09/18 02:08:30;;;;;;;12.38;5.53;;;;;;;;;;5030057;28;20109;-67
2021/09/18 02:10:57;;;;;;;9.18;6.22;;;;;;;;;;5098131;28;20026;-66
2021/09/18 02:13:24;;;;;;;7.55;5.40;;;;;;;;;;5029926;28;20032;-67
2021/09/18 02:15:50;;;;;;;13.52;7.30;;;;;;;;;;5029761;28;20075;-67
2021/09/18 02:18:16;;;;;;;12.88;5.32;;;;;;;;;;5028947;28;20021;-67
2021/09/18 02:20:42;;;;;;;15.88;8.45;;;;;;;;;;5029643;28;20046;-66
2021/09/18 02:23:14;;;;;;;9.27;5.28;;;;;;;;;;5029961;28;20069;-66
2021/09/18 02:25:40;;;;;;;9.27;5.45;;;;;;;;;;5114693;27;20019;-67
2021/09/18 02:28:06;;;;;;;11.23;4.88;;;;;;;;;;5133432;27;20481;-70
2021/09/18 02:30:34;;;;;;;6.43;4.80;;;;;;;;;;5133445;27;20063;-66
2021/09/18 02:33:01;;;;;;;16.42;5.68;;;;;;;;;;5070748;27;20022;-69
2021/09/18 02:35:27;;;;;;;14.48;5.03;;;;;;;;;;5009907;28;20101;-67
2021/09/18 02:37:54;;;;;;;16.02;4.40;;;;;;;;;;5010178;28;20108;-66
2021/09/18 02:40:21;;;;;;;14.57;4.50;;;;;;;;;;5048648;27;20024;-67
2021/09/18 02:42:48;;;;;;;10.52;5.05;;;;;;;;;;5114958;28;20037;-68
2021/09/18 02:45:15;;;;;;;12.07;5.68;;;;;;;;;;5133601;28;20012;-67
2021/09/18 02:47:41;;;;;;;14.55;5.60;;;;;;;;;;5115172;28;20023;-68
2021/09/18 02:50:08;;;;;;;15.45;5.00;;;;;;;;;;5037553;28;20497;-68
2021/09/18 02:52:34;;;;;;;10.35;4.88;;;;;;;;;;5077214;28;20133;-67
2021/09/18 02:55:00;;;;;;;8.85;5.63;;;;;;;;;;5009726;28;20041;-67
2021/09/18 02:57:26;;;;;;;7.90;5.18;;;;;;;;;;5009711;28;20030;-68
2021/09/18 02:59:52;;;;;;;14.43;5.43;;;;;;;;;;5009838;28;20075;-69
2021/09/18 03:02:18;;;;;;;11.77;5.72;;;;;;;;;;5077355;28;20041;-69
2021/09/18 03:04:44;;;;;;;10.85;5.55;;;;;;;;;;5077265;28;20469;-66
2021/09/18 03:07:10;;;;;;;13.93;9.70;;;;;;;;;;5081141;28;20117;-67
2021/09/18 03:09:36;;;;;;;9.10;5.90;;;;;;;;;;5012974;28;20030;-67
2021/09/18 03:12:02;;;;;;;9.18;5.10;;;;;;;;;;5012887;28;20036;-67
2021/09/18 03:14:28;;;;;;;7.65;4.85;;;;;;;;;;5012873;28;20052;-71
2021/09/18 03:16:54;;;;;;;7.85;5.22;;;;;;;;;;5012886;28;20477;-68
2021/09/18 03:19:20;;;;;;;6.55;4.60;;;;;;;;;;5080972;28;20049;-68
2021/09/18 03:21:47;;;;;;;9.93;5.90;;;;;;;;;;5013149;28;20041;-66
2021/09/18 03:24:13;;;;;;;9.27;5.38;;;;;;;;;;5012630;28;20159;-67
2021/09/18 03:26:41;;;;;;;9.82;5.05;;;;;;;;;;5081022;28;20037;-67
2021/09/18 03:29:07;;;;;;;13.25;6.75;;;;;;;;;;5012613;28;20021;-67
2021/09/18 03:31:33;;;;;;;14.23;5.03;;;;;;;;;;5080700;28;20112;-70
2021/09/18 03:33:59;;;;;;;9.90;5.05;;;;;;;;;;5080731;28;20125;-69
2021/09/18 03:36:25;;;;;;;12.48;5.70;;;;;;;;;;5012660;28;20034;-68
2021/09/18 03:38:51;;;;;;;13.43;4.65;;;;;;;;;;5080860;28;20018;-67
2021/09/18 03:41:17;;;;;;;13.68;5.38;;;;;;;;;;5012519;28;20030;-68
2021/09/18 03:43:45;;;;;;;14.00;5.57;;;;;;;;;;5079945;28;20041;-68
2021/09/18 03:46:11;;;;;;;17.13;5.22;;;;;;;;;;5012733;28;20110;-68
2021/09/18 03:48:37;;;;;;;10.88;4.60;;;;;;;;;;5012720;28;20065;-69
2021/09/18 03:51:03;;;;;;;19.58;7.32;;;;;;;;;;5079699;28;20030;-67
2021/09/18 03:53:31;;;;;;;8.00;5.40;;;;;;;;;;5080258;28;20034;-69
2021/09/18 03:55:57;;;;;;;11.93;6.78;;;;;;;;;;5019075;28;20107;-68
2021/09/18 03:58:23;;;;;;;11.07;5.30;;;;;;;;;;5031844;28;20105;-67
2021/09/18 04:00:49;;;;;;;21.30;5.45;;;;;;;;;;5100583;28;20041;-67
2021/09/18 04:03:15;;;;;;;13.98;5.85;;;;;;;;;;5031840;28;20557;-68
2021/09/18 04:05:41;;;;;;;10.40;4.35;;;;;;;;;;5100502;28;20022;-67
2021/09/18 04:08:08;;;;;;;15.05;7.65;;;;;;;;;;5032094;28;20026;-67
2021/09/18 04:10:34;;;;;;;10.60;5.43;;;;;;;;;;5031898;28;20450;-67
2021/09/18 04:13:00;;;;;;;16.60;5.50;;;;;;;;;;5031800;28;20109;-67
2021/09/18 04:15:26;;;;;;;13.43;9.05;;;;;;;;;;5100363;28;20025;-68
2021/09/18 04:17:52;;;;;;;12.18;7.15;;;;;;;;;;5030479;28;20360;-67
2021/09/18 04:20:18;;;;;;;12.70;8.32;;;;;;;;;;5095777;28;20046;-67
2021/09/18 04:22:44;;;;;;;10.32;5.68;;;;;;;;;;5011610;28;20034;-69
2021/09/18 04:25:10;;;;;;;8.45;4.72;;;;;;;;;;5011602;28;20373;-69
2021/09/18 04:27:36;;;;;;;18.13;12.13;;;;;;;;;;5096873;28;20800;-69
2021/09/18 04:30:03;;;;;;;17.05;13.25;;;;;;;;;;5011672;28;20030;-68
2021/09/18 04:32:29;;;;;;;16.02;9.30;;;;;;;;;;5011843;28;20026;-66
2021/09/18 04:34:55;;;;;;;9.80;5.53;;;;;;;;;;5011812;28;20051;-70
2021/09/18 04:37:21;;;;;;;19.90;10.35;;;;;;;;;;5011730;28;20033;-67
2021/09/18 04:39:47;;;;;;;16.50;6.35;;;;;;;;;;5031242;27;20422;-67
2021/09/18 04:42:13;;;;;;;20.58;11.70;;;;;;;;;;5135569;27;20074;-67
2021/09/18 04:44:39;;;;;;;14.32;8.38;;;;;;;;;;5135402;27;20079;-66
2021/09/18 04:47:05;;;;;;;17.20;7.30;;;;;;;;;;5135764;27;20363;-67
2021/09/18 04:49:31;;;;;;;17.52;11.05;;;;;;;;;;5135441;27;20019;-68
2021/09/18 04:51:57;;;;;;;29.08;12.45;;;;;;;;;;5135538;27;20034;-66
2021/09/18 04:54:23;;;;;;;18.27;12.05;;;;;;;;;;5135519;27;20019;-66
2021/09/18 04:56:48;;;;;;;17.90;9.68;;;;;;;;;;5102537;27;20589;-67
2021/09/18 04:59:14;;;;;;;22.38;11.20;;;;;;;;;;5031189;28;20086;-67
2021/09/18 05:01:40;;;;;;;23.70;13.85;;;;;;;;;;5031019;28;20033;-67
2021/09/18 05:04:06;;;;;;;16.25;7.25;;;;;;;;;;5099586;28;20503;-70
2021/09/18 05:06:32;;;;;;;19.17;7.78;;;;;;;;;;5031417;28;20480;-67
2021/09/18 05:08:58;;;;;;;21.20;12.52;;;;;;;;;;5030890;28;20029;-67
2021/09/18 05:11:24;;;;;;;16.85;9.48;;;;;;;;;;5099045;28;20022;-67
2021/09/18 05:13:50;;;;;;;16.35;10.38;;;;;;;;;;5099522;28;20022;-71
2021/09/18 05:16:17;;;;;;;19.35;12.77;;;;;;;;;;5098919;28;20522;-67
2021/09/18 05:18:43;;;;;;;23.63;14.38;;;;;;;;;;5030574;28;20049;-67
2021/09/18 05:21:08;;;;;;;25.95;13.68;;;;;;;;;;5099080;27;20049;-69
2021/09/18 05:23:35;;;;;;;27.45;15.27;;;;;;;;;;5046252;27;20575;-70
2021/09/18 05:26:01;;;;;;;24.73;16.10;;;;;;;;;;5058371;27;20053;-67
2021/09/18 05:28:27;;;;;;;18.05;8.38;;;;;;;;;;5030668;28;20377;-68
2021/09/18 05:30:53;;;;;;;31.52;10.15;;;;;;;;;;5107731;27;20098;-69
2021/09/18 05:33:19;;;;;;;21.27;9.43;;;;;;;;;;5015135;28;20104;-70
2021/09/18 05:35:45;;;;;;;20.15;9.40;;;;;;;;;;5037312;27;20029;-69
2021/09/18 05:38:11;;;;;;;16.42;7.85;;;;;;;;;;5091824;27;20023;-70
2021/09/18 05:40:37;;;;;;;19.98;14.57;;;;;;;;;;5135082;27;20406;-69
2021/09/18 05:43:04;;;;;;;23.52;10.90;;;;;;;;;;5086735;27;20532;-71
2021/09/18 05:45:29;;;;;;;26.52;10.30;;;;;;;;;;5099226;28;20021;-70
2021/09/18 05:47:55;;;;;;;18.58;11.98;;;;;;;;;;5098553;28;20078;-70
2021/09/18 05:50:21;;;;;;;18.33;10.55;;;;;;;;;;5034650;27;20507;-68
2021/09/18 05:52:47;;;;;;;21.83;14.82;;;;;;;;;;5062148;27;20026;-67
2021/09/18 05:55:13;;;;;;;22.00;14.27;;;;;;;;;;5107293;27;20038;-70
2021/09/18 05:57:39;;;;;;;23.05;13.20;;;;;;;;;;5086188;27;20450;-65
2021/09/18 06:00:07;;;;;;;26.35;16.30;;;;;;;;;;5055763;27;20031;-68
2021/09/18 06:02:32;;;;;;;22.13;14.70;;;;;;;;;;5115201;27;20375;-66
2021/09/18 06:04:58;;;;;;;24.60;15.05;;;;;;;;;;5134450;27;20477;-65
2021/09/18 06:07:25;;;;;;;20.02;12.95;;;;;;;;;;5134254;27;20049;-64
2021/09/18 06:09:50;;;;;;;24.25;13.10;;;;;;;;;;5133073;27;20030;-66
2021/09/18 06:12:16;;;;;;;15.38;10.35;;;;;;;;;;5133731;27;20027;-63
2021/09/18 06:14:42;;;;;;;20.38;11.20;;;;;;;;;;5133772;27;20066;-64
2021/09/18 06:17:08;;;;;;;17.38;12.40;;;;;;;;;;5040269;27;20475;-72
2021/09/18 06:19:34;;;;;;;18.67;11.88;;;;;;;;;;5077318;28;20099;-65
2021/09/18 06:22:00;;;;;;;21.00;11.85;;;;;;;;;;5077562;28;20137;-65
2021/09/18 06:24:26;;;;;;;17.52;11.60;;;;;;;;;;5092621;27;20457;-65
2021/09/18 06:26:52;;;;;;;16.70;10.63;;;;;;;;;;5115027;27;20027;-69
2021/09/18 06:29:18;;;;;;;17.95;13.25;;;;;;;;;;5133602;27;20035;-64
2021/09/18 06:31:44;;;;;;;17.88;13.32;;;;;;;;;;5127929;27;20075;-68
2021/09/18 06:34:10;;;;;;;16.52;11.20;;;;;;;;;;5010026;28;20022;-68
2021/09/18 06:36:36;;;;;;;19.15;12.10;;;;;;;;;;5094323;28;20026;-69
2021/09/18 06:39:03;;;;;;;18.92;12.77;;;;;;;;;;5052456;28;20025;-68
2021/09/18 06:41:28;;;;;;;16.05;12.05;;;;;;;;;;5113743;27;20023;-68
2021/09/18 06:43:55;;;;;;;21.60;14.68;;;;;;;;;;5133214;27;20035;-67
2021/09/18 06:46:21;;;;;;;15.98;9.57;;;;;;;;;;5133645;28;20026;-69
2021/09/18 06:48:47;;;;;;;14.77;9.50;;;;;;;;;;5134118;28;20064;-68
2021/09/18 06:51:13;;;;;;;12.35;8.10;;;;;;;;;;5098541;28;20025;-70
2021/09/18 06:53:39;;;;;;;12.07;8.95;;;;;;;;;;5126997;28;20031;-67
2021/09/18 06:56:05;;;;;;;15.68;9.68;;;;;;;;;;5114953;28;20106;-69
2021/09/18 06:58:31;;;;;;;13.43;9.48;;;;;;;;;;5103404;28;20029;-69
2021/09/18 07:00:57;;;;;;;16.65;10.68;;;;;;;;;;5109973;28;20026;-69
2021/09/18 07:03:25;;;;;;;15.32;10.07;;;;;;;;;;5108863;28;20032;-68
2021/09/18 07:05:51;;;;;;;20.98;13.13;;;;;;;;;;5029555;28;20086;-69
2021/09/18 07:08:17;;;;;;;26.50;12.50;;;;;;;;;;5030010;28;20025;-69
2021/09/18 07:10:43;;;;;;;20.90;12.10;;;;;;;;;;5028875;28;20037;-67
2021/09/18 07:13:09;;;;;;;22.92;12.52;;;;;;;;;;5028972;28;20034;-63
2021/09/18 07:15:35;;;;;;;19.23;13.07;;;;;;;;;;5029270;28;20471;-62
2021/09/18 07:18:01;;;;;;;23.05;13.25;;;;;;;;;;5022445;28;20063;-65
2021/09/18 07:20:27;;;;;;;29.77;15.00;;;;;;;;;;5076899;28;20502;-68
2021/09/18 07:22:53;;;;;;;38.70;14.40;;;;;;;;;;5051501;28;20037;-72
2021/09/18 07:25:19;;;;;;;37.80;15.50;;;;;;;;;;5132687;28;20019;-66
2021/09/18 07:27:45;;;;;;;35.08;18.33;;;;;;;;;;5132650;28;20399;-64
2021/09/18 07:30:11;;;;;;;31.02;17.95;;;;;;;;;;5132702;28;20153;-68
2021/09/18 07:32:37;;;;;;;33.28;17.02;;;;;;;;;;5118098;28;20046;-69
2021/09/18 07:35:06;;;;;;;35.80;19.95;;;;;;;;;;5084219;28;20552;-68
2021/09/18 07:37:33;;;;;;;37.53;19.15;;;;;;;;;;5028876;28;20025;-70
2021/09/18 07:39:59;;;;;;;30.50;17.35;;;;;;;;;;5046898;28;20024;-66
2021/09/18 07:42:25;;;;;;;43.78;19.63;;;;;;;;;;5132417;28;20110;-64
2021/09/18 07:44:51;;;;;;;36.70;20.70;;;;;;;;;;5132566;28;20102;-64
2021/09/18 07:47:17;;;;;;;38.05;20.20;;;;;;;;;;5132467;28;20031;-64
2021/09/18 07:49:43;;;;;;;35.17;22.98;;;;;;;;;;5132030;28;20076;-65
2021/09/18 07:52:09;;;;;;;40.15;23.67;;;;;;;;;;5114590;27;20034;-67
2021/09/18 07:54:35;;;;;;;43.90;25.90;;;;;;;;;;5107394;27;20106;-64
2021/09/18 07:57:01;;;;;;;40.97;24.13;;;;;;;;;;5080396;27;20314;-64
2021/09/18 07:59:27;;;;;;;36.47;23.80;;;;;;;;;;5060375;27;20387;-65
2021/09/18 08:01:53;;;;;;;43.15;25.48;;;;;;;;;;5031847;28;20037;-63
2021/09/18 08:04:19;;;;;;;45.85;28.33;;;;;;;;;;5124966;27;20023;-65
2021/09/18 08:06:45;;;;;;;48.25;28.60;;;;;;;;;;5100438;27;20036;-64
2021/09/18 08:09:11;;;;;;;46.40;25.92;;;;;;;;;;5100259;28;20029;-64
2021/09/18 08:11:37;;;;;;;44.28;27.27;;;;;;;;;;5031329;28;20470;-65
2021/09/18 08:14:03;;;;;;;46.08;27.60;;;;;;;;;;5099911;28;20026;-64
2021/09/18 08:16:30;;;;;;;46.25;26.73;;;;;;;;;;5031469;28;20037;-65
2021/09/18 08:18:56;;;;;;;46.67;28.20;;;;;;;;;;5030594;28;20081;-69
2021/09/18 08:21:22;;;;;;;38.35;24.58;;;;;;;;;;5032190;28;20621;-74
2021/09/18 08:23:48;;;;;;;41.35;24.48;;;;;;;;;;5031650;28;20473;-65
2021/09/18 08:26:14;;;;;;;35.47;22.65;;;;;;;;;;5117443;27;20389;-67
2021/09/18 08:28:40;;;;;;;37.75;22.83;;;;;;;;;;5115370;27;20478;-67
2021/09/18 08:31:06;;;;;;;34.03;19.23;;;;;;;;;;5093585;27;20055;-67
2021/09/18 08:33:32;;;;;;;35.70;22.63;;;;;;;;;;5114719;27;20025;-67
2021/09/18 08:35:58;;;;;;;35.55;22.55;;;;;;;;;;5014850;28;20030;-67
2021/09/18 08:38:26;;;;;;;45.63;22.85;;;;;;;;;;5110022;27;20038;-68
2021/09/18 08:40:53;;;;;;;28.98;16.80;;;;;;;;;;5135329;27;20023;-68
2021/09/18 08:43:20;;;;;;;34.47;21.25;;;;;;;;;;5117103;27;20374;-68
2021/09/18 08:45:46;;;;;;;38.70;23.65;;;;;;;;;;5052922;27;20067;-64
2021/09/18 08:48:13;;;;;;;31.08;19.77;;;;;;;;;;5049996;27;20031;-69
2021/09/18 08:50:39;;;;;;;37.95;23.45;;;;;;;;;;5135439;27;20034;-68
2021/09/18 08:53:06;;;;;;;35.00;21.23;;;;;;;;;;5090268;27;20618;-68
2021/09/18 08:55:32;;;;;;;33.85;20.90;;;;;;;;;;5030111;28;20361;-69
2021/09/18 08:57:58;;;;;;;38.60;21.63;;;;;;;;;;5031134;28;20041;-69
2021/09/18 09:00:30;;;;;;;32.38;20.98;;;;;;;;;;5030977;28;20029;-68
2021/09/18 09:02:57;;;;;;;39.35;22.45;;;;;;;;;;5078711;28;20055;-68
2021/09/18 09:05:27;;;;;;;34.20;20.90;;;;;;;;;;5048060;27;20022;-68
2021/09/18 09:08:09;;;;;;;37.67;22.48;;;;;;;;;;5048520;27;20026;-70
2021/09/18 09:10:35;;;;;;;38.83;23.00;;;;;;;;;;5079385;28;20029;-73
2021/09/18 09:13:06;;;;;;;42.85;23.15;;;;;;;;;;5011724;28;20834;-69
2021/09/18 09:15:32;;;;;;;46.58;21.58;;;;;;;;;;5082235;28;20025;-72
2021/09/18 09:18:18;;;;;;;41.63;22.00;;;;;;;;;;5107314;27;20463;-69
2021/09/18 09:20:44;;;;;;;35.60;21.65;;;;;;;;;;5135263;27;20062;-74
2021/09/18 09:23:14;;;;;;;38.92;22.65;;;;;;;;;;5065928;27;20033;-76
2021/09/18 09:25:40;;;;;;;39.17;22.98;;;;;;;;;;5113643;27;20024;-72
2021/09/18 09:28:23;;;;;;;41.65;24.48;;;;;;;;;;5100161;27;20475;-66
2021/09/18 09:30:49;;;;;;;45.65;24.52;;;;;;;;;;5046479;27;20023;-71
2021/09/18 09:33:15;;;;;;;39.00;22.60;;;;;;;;;;5084628;27;20017;-64
2021/09/18 09:35:42;;;;;;;56.28;24.17;;;;;;;;;;5079828;27;20037;-69
2021/09/18 09:38:08;;;;;;;46.35;22.85;;;;;;;;;;5105952;27;20023;-70
2021/09/18 09:40:37;;;;;;;38.08;22.83;;;;;;;;;;5075344;27;20022;-72
2021/09/18 09:43:04;;;;;;;48.78;22.42;;;;;;;;;;5087930;27;20110;-71
2021/09/18 09:45:30;;;;;;;40.05;21.70;;;;;;;;;;5080818;27;20025;-74
2021/09/18 09:48:11;;;;;;;34.03;20.80;;;;;;;;;;5104460;27;20030;-66
2021/09/18 09:50:39;;;;;;;32.25;18.70;;;;;;;;;;5097505;28;20180;-73
2021/09/18 09:53:05;;;;;;;37.45;21.25;;;;;;;;;;5069391;27;20080;-73
2021/09/18 09:55:35;;;;;;;37.97;20.08;;;;;;;;;;5044697;27;20030;-72
2021/09/18 09:58:09;;;;;;;39.38;21.42;;;;;;;;;;5044911;27;20079;-67
2021/09/18 10:00:56;;;;;;;37.60;19.88;;;;;;;;;;5109614;27;20432;-69
2021/09/18 10:03:23;;;;;;;31.70;18.30;;;;;;;;;;5062460;27;20087;-74
2021/09/18 10:05:49;;;;;;;37.78;18.70;;;;;;;;;;5059641;27;20460;-72
2021/09/18 10:08:19;;;;;;;37.60;18.88;;;;;;;;;;5113687;27;20478;-70
2021/09/18 10:10:45;;;;;;;33.95;19.15;;;;;;;;;;5062281;27;20418;-68
2021/09/18 10:13:11;;;;;;;31.08;17.73;;;;;;;;;;5072273;27;20045;-65
2021/09/18 10:15:38;;;;;;;29.80;17.33;;;;;;;;;;5094541;27;20019;-71
2021/09/18 10:18:04;;;;;;;29.00;17.05;;;;;;;;;;5105608;27;20033;-71
2021/09/18 10:23:17;;;;;;;28.42;16.02;;;;;;;;;;5081785;27;20523;-70
2021/09/18 10:25:46;;;;;;;30.20;16.67;;;;;;;;;;5085911;27;20413;-72
2021/09/18 10:28:29;;;;;;;28.75;16.02;;;;;;;;;;5103254;27;20030;-69
2021/09/18 10:30:55;;;;;;;25.83;14.95;;;;;;;;;;5115765;27;20027;-71
2021/09/18 10:33:39;;;;;;;20.58;13.30;;;;;;;;;;5134406;27;20030;-70
2021/09/18 10:36:11;;;;;;;22.98;14.32;;;;;;;;;;5010618;28;20029;-72
2021/09/18 10:38:40;;;;;;;23.50;14.20;;;;;;;;;;5029598;27;20060;-67
2021/09/18 10:41:07;;;;;;;23.48;13.52;;;;;;;;;;5081939;27;20472;-68
2021/09/18 10:43:35;;;;;;;22.70;13.43;;;;;;;;;;5073225;28;20027;-65
2021/09/18 10:46:02;;;;;;;23.67;12.02;;;;;;;;;;5086904;27;20474;-69
2021/09/18 10:48:39;;;;;;;19.38;12.38;;;;;;;;;;5114215;28;20370;-66
2021/09/18 10:51:06;;;;;;;18.17;11.73;;;;;;;;;;5087026;27;20051;-65
2021/09/18 10:53:52;;;;;;;22.75;11.88;;;;;;;;;;5012814;28;20026;-66
2021/09/18 10:56:18;;;;;;;19.48;11.85;;;;;;;;;;5061746;28;20029;-64
2021/09/18 10:59:02;;;;;;;19.38;11.48;;;;;;;;;;5016581;28;20026;-65
2021/09/18 11:01:28;;;;;;;22.42;11.93;;;;;;;;;;5019207;28;20523;-66
2021/09/18 11:03:58;;;;;;;16.85;10.85;;;;;;;;;;5021755;28;20372;-68
2021/09/18 11:06:35;;;;;;;16.13;10.20;;;;;;;;;;5059786;28;20364;-67
2021/09/18 11:09:01;;;;;;;15.40;9.77;;;;;;;;;;5009583;28;20120;-63
2021/09/18 11:11:28;;;;;;;18.13;10.27;;;;;;;;;;5091253;28;20040;-65
2021/09/18 11:13:56;;;;;;;17.80;9.68;;;;;;;;;;5022949;28;20017;-66
2021/09/18 11:16:32;;;;;;;23.67;9.88;;;;;;;;;;5031814;28;20022;-64
2021/09/18 11:19:03;;;;;;;24.70;10.45;;;;;;;;;;5017704;28;20049;-65
2021/09/18 11:21:32;;;;;;;19.63;10.27;;;;;;;;;;5046557;28;20030;-65
2021/09/18 11:23:59;;;;;;;31.45;10.15;;;;;;;;;;5017337;28;20082;-65
2021/09/18 11:26:35;;;;;;;17.80;9.73;;;;;;;;;;5086327;27;20037;-64
2021/09/18 11:29:16;;;;;;;17.88;9.32;;;;;;;;;;5090160;27;20019;-69
2021/09/18 11:32:01;;;;;;;20.05;9.82;;;;;;;;;;5091111;28;20433;-68
2021/09/18 11:34:28;;;;;;;16.60;9.23;;;;;;;;;;5012859;28;20396;-66
2021/09/18 11:36:56;;;;;;;16.63;9.73;;;;;;;;;;5059431;27;20079;-65
2021/09/18 11:39:35;;;;;;;18.50;9.13;;;;;;;;;;5085390;27;20030;-65
2021/09/18 11:42:18;;;;;;;15.63;9.60;;;;;;;;;;5114333;27;20031;-65
2021/09/18 11:44:45;;;;;;;17.27;9.00;;;;;;;;;;5137005;27;20031;-65
2021/09/18 11:47:12;;;;;;;17.85;10.20;;;;;;;;;;5101108;27;20024;-64
2021/09/18 11:49:37;;;;;;;12.63;7.55;;;;;;;;;;5071740;27;20021;-65
2021/09/18 11:52:04;;;;;;;15.95;8.40;;;;;;;;;;5103852;27;20040;-64
2021/09/18 11:54:34;;;;;;;14.35;8.30;;;;;;;;;;5118136;27;20023;-65
2021/09/18 11:57:10;;;;;;;13.07;7.10;;;;;;;;;;5136941;27;20542;-64
2021/09/18 11:59:36;;;;;;;14.43;7.40;;;;;;;;;;5136062;27;20027;-64
2021/09/18 12:02:02;;;;;;;17.17;7.22;;;;;;;;;;5075699;27;20046;-64
2021/09/18 12:04:49;;;;;;;11.05;7.00;;;;;;;;;;5109661;27;20017;-72
2021/09/18 12:07:15;;;;;;;14.55;7.05;;;;;;;;;;5098129;28;20361;-70
2021/09/18 12:09:41;;;;;;;12.25;6.80;;;;;;;;;;5091119;27;20089;-71
2021/09/18 12:12:08;;;;;;;9.05;6.22;;;;;;;;;;5107896;27;20025;-72
2021/09/18 12:14:35;;;;;;;10.32;5.97;;;;;;;;;;5109475;27;20096;-71
2021/09/18 12:17:13;;;;;;;10.18;6.00;;;;;;;;;;5101179;28;20025;-70
2021/09/18 12:19:40;;;;;;;10.50;6.00;;;;;;;;;;5101133;28;20045;-70
2021/09/18 12:22:06;;;;;;;8.27;5.82;;;;;;;;;;5089857;27;20037;-70
2021/09/18 12:24:35;;;;;;;13.65;6.00;;;;;;;;;;5037872;28;20097;-69
2021/09/18 12:27:01;;;;;;;11.07;6.20;;;;;;;;;;5100913;28;20040;-70
2021/09/18 12:29:27;;;;;;;9.00;5.60;;;;;;;;;;5107650;27;20027;-70
2021/09/18 12:32:02;;;;;;;25.75;5.97;;;;;;;;;;5118071;27;20613;-69
2021/09/18 12:34:33;;;;;;;5.57;4.80;;;;;;;;;;5097319;28;20481;-69
2021/09/18 12:37:10;;;;;;;10.02;6.07;;;;;;;;;;5080338;28;20081;-70
2021/09/18 12:39:36;;;;;;;11.95;5.50;;;;;;;;;;5080100;27;20057;-71
2021/09/18 12:42:04;;;;;;;10.90;6.05;;;;;;;;;;5136237;27;20027;-70
2021/09/18 12:44:48;;;;;;;8.02;6.40;;;;;;;;;;5136501;27;20020;-70
2021/09/18 12:47:21;;;;;;;12.55;6.75;;;;;;;;;;5118063;27;20472;-69
2021/09/18 12:49:47;;;;;;;13.77;5.80;;;;;;;;;;5109143;27;20080;-69
2021/09/18 12:52:13;;;;;;;8.48;5.80;;;;;;;;;;5080391;28;20476;-70
2021/09/18 12:54:43;;;;;;;10.35;6.50;;;;;;;;;;5041687;28;20025;-72
2021/09/18 12:57:09;;;;;;;24.02;6.53;;;;;;;;;;5120741;27;20508;-73
2021/09/18 12:59:42;;;;;;;9.98;5.10;;;;;;;;;;5121277;27;20025;-70
2021/09/18 13:02:09;;;;;;;11.77;6.95;;;;;;;;;;5051630;28;20029;-70
2021/09/18 13:04:35;;;;;;;10.25;5.68;;;;;;;;;;5062538;27;20019;-69
2021/09/18 13:07:01;;;;;;;30.27;5.88;;;;;;;;;;5081204;27;20037;-71
2021/09/18 13:09:28;;;;;;;13.23;6.47;;;;;;;;;;5016582;28;20026;-70
2021/09/18 13:11:56;;;;;;;13.88;6.45;;;;;;;;;;5011807;28;20033;-70
2021/09/18 13:14:33;;;;;;;13.02;6.45;;;;;;;;;;5011926;28;20465;-70
2021/09/18 13:17:00;;;;;;;12.02;5.57;;;;;;;;;;5012210;28;20032;-70
2021/09/18 13:19:27;;;;;;;11.50;5.70;;;;;;;;;;5079489;28;20074;-70
2021/09/18 13:21:54;;;;;;;9.07;5.47;;;;;;;;;;5068081;27;20039;-69
2021/09/18 13:24:20;;;;;;;10.02;5.03;;;;;;;;;;5012490;28;20369;-70
2021/09/18 13:26:46;;;;;;;10.50;4.55;;;;;;;;;;5012899;28;20033;-70
2021/09/18 13:29:12;;;;;;;10.65;4.43;;;;;;;;;;5011894;28;20093;-70
2021/09/18 13:31:38;;;;;;;34.25;4.82;;;;;;;;;;5011782;28;20029;-70
2021/09/18 13:34:04;;;;;;;12.07;5.10;;;;;;;;;;5011784;28;20044;-72
2021/09/18 13:36:30;;;;;;;12.82;4.75;;;;;;;;;;5039641;27;20104;-72
2021/09/18 13:38:56;;;;;;;8.88;4.18;;;;;;;;;;5013691;28;20030;-72
2021/09/18 13:41:22;;;;;;;6.75;4.00;;;;;;;;;;5011708;28;20548;-72
2021/09/18 13:43:48;;;;;;;7.32;3.83;;;;;;;;;;5011728;28;20086;-70
2021/09/18 13:46:14;;;;;;;10.98;3.60;;;;;;;;;;5029991;28;20410;-63
2021/09/18 13:48:40;;;;;;;8.23;3.55;;;;;;;;;;5029596;28;20468;-65
2021/09/18 13:51:07;;;;;;;7.10;3.95;;;;;;;;;;5029779;28;20042;-64
2021/09/18 13:53:33;;;;;;;12.90;3.90;;;;;;;;;;5035101;28;20062;-64
2021/09/18 13:55:59;;;;;;;6.25;3.58;;;;;;;;;;5049687;28;20037;-64
2021/09/18 13:58:25;;;;;;;5.25;3.67;;;;;;;;;;5050300;28;20491;-64
2021/09/18 14:00:54;;;;;;;12.40;3.92;;;;;;;;;;5045592;28;20025;-64
2021/09/18 14:03:20;;;;;;;5.85;3.45;;;;;;;;;;5115503;27;20039;-64
2021/09/18 14:05:46;;;;;;;6.70;3.33;;;;;;;;;;5116090;27;20038;-65
2021/09/18 14:08:12;;;;;;;6.72;3.42;;;;;;;;;;5134347;27;20473;-65
2021/09/18 14:10:38;;;;;;;9.40;3.97;;;;;;;;;;5070358;27;20030;-71
2021/09/18 14:13:04;;;;;;;7.68;4.80;;;;;;;;;;5010680;28;20083;-67
2021/09/18 14:15:30;;;;;;;8.90;4.50;;;;;;;;;;5010878;28;20151;-70
2021/09/18 14:17:56;;;;;;;5.05;4.07;;;;;;;;;;5105026;27;20473;-71
2021/09/18 14:20:22;;;;;;;9.35;4.07;;;;;;;;;;5104345;27;20053;-72
2021/09/18 14:22:48;;;;;;;10.40;4.25;;;;;;;;;;5134364;27;20039;-71
2021/09/18 14:25:14;;;;;;;7.38;3.67;;;;;;;;;;5134739;27;20025;-72
2021/09/18 14:27:40;;;;;;;14.75;3.67;;;;;;;;;;5041622;27;20034;-71
2021/09/18 14:30:07;;;;;;;8.35;3.53;;;;;;;;;;5115841;27;20031;-72